createdAt,value
2022-08-27T00:03:00.277Z,16.10
2022-08-27T00:06:42.387Z,16.00
2022-08-27T00:10:28.117Z,15.90
2022-08-27T00:14:10.106Z,15.90
2022-08-27T00:17:52.456Z,15.80
2022-08-27T00:21:34.666Z,15.70
2022-08-27T00:25:16.860Z,15.70
2022-08-27T00:28:58.857Z,15.60
2022-08-27T00:32:41.161Z,15.50
2022-08-27T00:36:24.272Z,15.50
2022-08-27T00:40:08.902Z,15.40
2022-08-27T00:43:54.276Z,15.30
2022-08-27T00:47:41.402Z,15.30
2022-08-27T00:51:24.560Z,15.20
2022-08-27T00:55:12.133Z,15.10
2022-08-27T00:58:55.539Z,15.10
2022-08-27T01:02:38.224Z,15.00
2022-08-27T01:06:22.022Z,14.90
2022-08-27T01:10:07.423Z,14.90
2022-08-27T01:14:00.390Z,14.80
2022-08-27T01:17:44.366Z,14.80
2022-08-27T01:21:33.041Z,14.70
2022-08-27T01:25:17.348Z,14.60
2022-08-27T01:28:59.939Z,14.60
2022-08-27T01:32:43.687Z,14.60
2022-08-27T01:36:25.911Z,14.50
2022-08-27T01:40:08.913Z,14.50
2022-08-27T01:43:52.077Z,14.50
2022-08-27T01:47:35.823Z,14.40
2022-08-27T01:51:18.114Z,14.30
2022-08-27T01:55:00.489Z,14.30
2022-08-27T01:58:43.788Z,14.20
2022-08-27T02:02:26.057Z,14.00
2022-08-27T02:06:10.659Z,13.90
2022-08-27T02:09:52.682Z,13.90
2022-08-27T02:13:34.987Z,13.80
2022-08-27T02:17:17.023Z,13.80
2022-08-27T02:20:58.959Z,13.80
2022-08-27T02:24:42.205Z,13.70
2022-08-27T02:28:24.147Z,13.70
2022-08-27T02:32:06.567Z,13.60
2022-08-27T02:35:48.553Z,13.50
2022-08-27T02:39:30.546Z,13.50
2022-08-27T02:43:15.828Z,13.50
2022-08-27T02:46:59.483Z,13.40
2022-08-27T02:50:42.411Z,13.40
2022-08-27T02:54:26.414Z,13.30
2022-08-27T02:58:09.790Z,13.20
2022-08-27T03:01:52.162Z,13.10
2022-08-27T03:05:34.251Z,13.10
2022-08-27T03:09:16.289Z,13.00
2022-08-27T03:12:58.424Z,13.00
2022-08-27T03:16:40.471Z,13.00
2022-08-27T03:20:23.460Z,13.00
2022-08-27T03:24:09.585Z,13.00
2022-08-27T03:27:53.408Z,12.90
2022-08-27T03:31:35.362Z,12.90
2022-08-27T03:35:17.942Z,12.90
2022-08-27T03:39:00.120Z,12.80
2022-08-27T03:42:43.520Z,12.80
2022-08-27T03:46:30.339Z,12.80
2022-08-27T03:50:12.812Z,12.70
2022-08-27T03:53:54.955Z,12.70
2022-08-27T03:57:37.200Z,12.70
2022-08-27T04:01:19.539Z,12.60
2022-08-27T04:05:01.640Z,12.50
2022-08-27T04:08:43.659Z,12.50
2022-08-27T04:12:27.214Z,12.40
2022-08-27T04:16:09.288Z,12.40
2022-08-27T04:19:54.316Z,12.40
2022-08-27T04:23:36.392Z,12.40
2022-08-27T04:27:19.241Z,12.30
2022-08-27T04:31:03.425Z,12.30
2022-08-27T04:34:45.424Z,12.30
2022-08-27T04:38:27.837Z,12.20
2022-08-27T04:42:09.895Z,12.20
2022-08-27T04:45:52.117Z,12.20
2022-08-27T04:49:34.267Z,12.10
2022-08-27T04:53:17.952Z,12.10
2022-08-27T04:57:00.544Z,12.00
2022-08-27T05:00:44.403Z,12.00
2022-08-27T05:04:26.613Z,12.00
2022-08-27T05:08:10.795Z,12.00
2022-08-27T05:11:54.455Z,11.90
2022-08-27T05:15:36.858Z,11.90
2022-08-27T05:19:18.910Z,11.90
2022-08-27T05:23:01.005Z,11.90
2022-08-27T05:26:43.149Z,11.80
2022-08-27T05:30:25.701Z,11.80
2022-08-27T05:34:10.623Z,11.80
2022-08-27T05:37:56.964Z,11.80
2022-08-27T05:41:39.803Z,11.80
2022-08-27T05:45:22.337Z,11.90
2022-08-27T05:49:04.414Z,11.90
2022-08-27T05:52:46.324Z,12.00
2022-08-27T05:56:30.929Z,12.00
2022-08-27T06:01:05.037Z,12.10
2022-08-27T06:04:55.211Z,12.20
2022-08-27T06:08:56.399Z,12.40
2022-08-27T06:12:48.478Z,12.50
2022-08-27T06:22:10.496Z,13.00
2022-08-27T06:25:53.627Z,13.50
2022-08-27T06:29:44.918Z,13.90
2022-08-27T06:33:43.097Z,14.40
2022-08-27T06:37:37.258Z,15.00
2022-08-27T06:41:37.550Z,15.50
2022-08-27T06:45:28.695Z,16.10
2022-08-27T06:49:27.483Z,16.60
2022-08-27T06:53:24.310Z,17.10
2022-08-27T06:57:24.281Z,17.70
2022-08-27T07:01:22.403Z,18.30
2022-08-27T07:05:16.779Z,18.90
2022-08-27T07:09:09.664Z,19.50
2022-08-27T07:13:10.166Z,20.20
2022-08-27T07:17:01.712Z,20.90
2022-08-27T07:20:46.896Z,21.60
2022-08-27T07:24:33.093Z,22.20
2022-08-27T07:28:16.867Z,22.80
2022-08-27T07:32:03.358Z,23.60
2022-08-27T07:35:49.514Z,24.40
2022-08-27T07:39:34.826Z,25.30
2022-08-27T07:43:41.077Z,26.10
2022-08-27T07:47:26.895Z,26.70
2022-08-27T07:51:57.053Z,27.40
2022-08-27T07:55:42.159Z,27.80
2022-08-27T07:59:27.524Z,28.40
2022-08-27T08:03:13.391Z,28.70
2022-08-27T08:06:58.671Z,29.30
2022-08-27T08:10:43.746Z,29.70
2022-08-27T08:14:32.795Z,30.10
2022-08-27T08:22:22.890Z,31.10
2022-08-27T08:26:28.755Z,31.60
2022-08-27T08:30:14.938Z,32.10
2022-08-27T08:34:22.914Z,33.00
2022-08-27T08:38:09.259Z,33.70
2022-08-27T08:42:38.368Z,34.00
2022-08-27T08:47:07.301Z,34.00
2022-08-27T08:51:15.614Z,34.20
2022-08-27T08:59:46.116Z,35.10
2022-08-27T09:04:03.398Z,35.90
2022-08-27T09:08:32.043Z,36.20
2022-08-27T09:16:27.785Z,36.40
2022-08-27T09:20:34.473Z,36.60
2022-08-27T09:24:24.883Z,37.00
2022-08-27T09:28:47.484Z,37.00
2022-08-27T09:32:55.546Z,36.80
2022-08-27T09:37:34.017Z,36.60
2022-08-27T09:41:26.350Z,36.80
2022-08-27T09:45:21.792Z,36.60
2022-08-27T09:49:19.031Z,36.80
2022-08-27T09:53:12.623Z,36.90
2022-08-27T09:56:59.205Z,36.50
2022-08-27T10:01:07.816Z,36.80
2022-08-27T10:19:07.010Z,37.20
2022-08-27T10:23:38.026Z,37.60
2022-08-27T10:28:07.664Z,38.20
2022-08-27T10:37:07.919Z,38.00
2022-08-27T10:41:39.709Z,36.60
2022-08-27T10:50:40.724Z,32.70
2022-08-27T10:59:39.748Z,29.60
2022-08-27T11:08:39.797Z,28.40
2022-08-27T11:17:42.954Z,27.10
2022-08-27T11:22:12.819Z,26.70
2022-08-27T11:31:12.637Z,26.10
2022-08-27T11:53:52.250Z,25.30
2022-08-27T12:02:44.341Z,24.80
2022-08-27T12:11:47.184Z,24.60
2022-08-27T12:16:15.033Z,24.60
2022-08-27T12:25:17.246Z,24.40
2022-08-27T12:29:47.042Z,24.20
2022-08-27T12:34:17.623Z,24.20
2022-08-27T12:43:19.152Z,24.40
2022-08-27T12:47:50.871Z,24.30
2022-08-27T12:52:21.326Z,24.30
2022-08-27T13:05:50.863Z,24.20
2022-08-27T13:13:43.664Z,24.10
2022-08-27T13:49:45.616Z,24.80
2022-08-27T13:54:16.303Z,24.80
2022-08-27T13:58:47.343Z,24.90
2022-08-27T14:12:18.504Z,25.30
2022-08-27T14:25:49.609Z,25.40
2022-08-27T14:34:48.429Z,26.00
2022-08-27T14:39:18.446Z,26.30
2022-08-27T14:48:28.774Z,26.80
2022-08-27T14:57:22.770Z,26.50
2022-08-27T15:01:52.733Z,26.10
2022-08-27T15:06:23.746Z,25.90
2022-08-27T15:10:53.559Z,25.50
2022-08-27T15:15:23.751Z,25.40
2022-08-27T15:19:53.583Z,25.40
2022-08-27T15:28:53.036Z,25.80
2022-08-27T15:37:55.657Z,26.10
2022-08-27T15:42:25.862Z,26.20
2022-08-27T15:46:55.664Z,26.20
2022-08-27T15:55:56.189Z,26.00
2022-08-27T16:04:55.678Z,25.70
2022-08-27T16:13:56.723Z,25.50
2022-08-27T16:27:28.875Z,25.20
2022-08-27T16:32:01.111Z,25.20
2022-08-27T16:40:58.826Z,25.10
2022-08-27T16:45:30.206Z,25.10
2022-08-27T16:50:00.029Z,25.10
2022-08-27T16:54:30.868Z,25.20
2022-08-27T16:59:01.135Z,25.20
2022-08-27T17:12:31.904Z,25.00
2022-08-27T17:17:01.920Z,24.90
2022-08-27T17:21:31.953Z,24.80
2022-08-27T17:26:01.960Z,24.80
2022-08-27T17:30:34.017Z,24.80
2022-08-27T17:39:34.015Z,24.90
2022-08-27T17:44:04.197Z,24.80
2022-08-27T17:53:04.064Z,24.60
2022-08-27T17:57:40.440Z,24.50
2022-08-27T18:25:45.606Z,24.00
2022-08-27T18:43:47.582Z,23.20
2022-08-27T18:48:16.412Z,22.90
2022-08-27T19:09:30.853Z,22.00
2022-08-27T19:13:13.176Z,21.80
2022-08-27T19:16:56.140Z,21.80
2022-08-27T19:20:38.261Z,21.60
2022-08-27T19:24:21.553Z,21.50
2022-08-27T19:28:03.648Z,21.40
2022-08-27T19:31:45.994Z,21.20
2022-08-27T19:35:28.008Z,21.00
2022-08-27T19:39:12.852Z,20.90
2022-08-27T19:42:54.836Z,20.60
2022-08-27T19:46:37.876Z,20.50
2022-08-27T19:50:20.352Z,20.30
2022-08-27T19:54:02.297Z,20.20
2022-08-27T19:57:44.887Z,20.10
2022-08-27T20:01:27.691Z,20.00
2022-08-27T20:05:18.699Z,19.80
2022-08-27T20:09:10.337Z,19.70
2022-08-27T20:12:52.643Z,19.70
2022-08-27T20:16:36.521Z,19.60
2022-08-27T20:20:22.438Z,19.50
2022-08-27T20:24:04.531Z,19.40
2022-08-27T20:27:47.800Z,19.30
2022-08-27T20:31:30.499Z,19.20
2022-08-27T20:35:13.034Z,19.10
2022-08-27T20:38:55.279Z,19.10
2022-08-27T20:42:38.001Z,19.00
2022-08-27T20:46:24.512Z,19.00
2022-08-27T20:50:07.203Z,18.90
2022-08-27T20:53:49.634Z,18.80
2022-08-27T20:57:31.569Z,18.70
2022-08-27T21:01:13.875Z,18.70
2022-08-27T21:04:56.967Z,18.70
2022-08-27T21:08:39.532Z,18.60
2022-08-27T21:12:22.832Z,18.60
2022-08-27T21:16:05.115Z,18.60
2022-08-27T21:19:47.420Z,18.60
2022-08-27T21:23:30.566Z,18.60
2022-08-27T21:27:12.479Z,18.50
2022-08-27T21:30:54.420Z,18.50
2022-08-27T21:34:36.679Z,18.50
2022-08-27T21:38:18.596Z,18.50
2022-08-27T21:42:01.866Z,18.40
2022-08-27T21:45:44.031Z,18.40
2022-08-27T21:49:26.004Z,18.50
2022-08-27T21:53:07.986Z,18.40
2022-08-27T21:56:49.886Z,18.40
2022-08-27T22:00:45.585Z,18.40
2022-08-27T22:04:29.839Z,18.40
2022-08-27T22:08:15.827Z,18.40
2022-08-27T22:11:57.740Z,18.40
2022-08-27T22:15:40.109Z,18.40
2022-08-27T22:19:22.507Z,18.40
2022-08-27T22:23:10.406Z,18.40
2022-08-27T22:26:52.844Z,18.40
2022-08-27T22:30:34.731Z,18.40
2022-08-27T22:34:17.188Z,18.40
2022-08-27T22:37:59.225Z,18.40
2022-08-27T22:41:41.791Z,18.40
2022-08-27T22:45:28.080Z,18.40
2022-08-27T22:49:10.288Z,18.30
2022-08-27T22:52:53.095Z,18.30
2022-08-27T22:56:35.909Z,18.20
2022-08-27T23:00:21.859Z,18.20
2022-08-27T23:04:06.471Z,18.10
2022-08-27T23:07:48.778Z,18.10
2022-08-27T23:11:31.881Z,18.10
2022-08-27T23:15:16.961Z,17.90
2022-08-27T23:18:58.948Z,17.90
2022-08-27T23:22:41.386Z,17.90
2022-08-27T23:26:42.209Z,17.90
2022-08-27T23:30:26.362Z,17.80
2022-08-27T23:34:08.554Z,17.80
2022-08-27T23:37:51.387Z,17.80
2022-08-27T23:41:33.377Z,17.70
2022-08-27T23:45:22.689Z,17.70
2022-08-27T23:49:04.821Z,17.70
2022-08-27T23:52:47.744Z,17.60
2022-08-27T23:56:29.919Z,17.60
